Time;durP1;ratioP1;P1;durP2;ratioP2;P2;SDS_P1;SDS_P2;PMS_P1;PMS_P2;Temp;Humidity;BMP_temperature;BMP_pressure;BME280_temperature;BME280_humidity;BME280_pressure;Samples;Min_cycle;Max_cycle;Signal;HPM_P1;HPM_P2
2022/08/10 00:02:30;;;;;;;4.63;2.55;;;;;;;20.97;39.63;100508.03;12195529;19;20050;-82
2022/08/10 00:06:32;;;;;;;5.67;2.60;;;;;;;20.89;39.93;100509.56;12233774;19;20375;-82
2022/08/10 00:10:33;;;;;;;5.20;2.70;;;;;;;20.80;39.85;100515.00;12265770;19;20030;-84
2022/08/10 00:14:35;;;;;;;5.30;3.03;;;;;;;20.73;40.16;100522.94;12201695;19;20130;-85
2022/08/10 00:18:37;;;;;;;5.03;2.83;;;;;;;20.65;40.22;100515.22;12227917;19;20080;-84
2022/08/10 00:22:38;;;;;;;4.88;2.75;;;;;;;20.60;40.52;100516.09;12221159;19;20070;-84
2022/08/10 00:26:58;;;;;;;7.35;3.10;;;;;;;20.57;40.92;100518.69;12196804;19;20009;-84
2022/08/10 00:31:20;;;;;;;5.90;2.90;;;;;;;20.51;40.85;100508.66;12218672;19;20011;-83
2022/08/10 00:35:21;;;;;;;6.93;2.78;;;;;;;20.47;41.16;100509.25;12197907;19;20010;-83
2022/08/10 00:39:24;;;;;;;5.70;3.08;;;;;;;20.44;41.33;100500.63;12218938;19;20014;-83
2022/08/10 00:43:26;;;;;;;5.90;3.58;;;;;;;20.45;40.57;100503.09;12218819;19;20011;-82
2022/08/10 00:47:28;;;;;;;6.47;3.10;;;;;;;20.42;40.92;100505.66;12195585;19;20017;-83
2022/08/10 00:51:38;;;;;;;7.25;3.05;;;;;;;20.37;41.16;100500.97;12213397;19;20038;-83
2022/08/10 00:55:49;;;;;;;3.88;2.95;;;;;;;20.40;40.75;100500.34;12216074;19;20014;-82
2022/08/10 01:00:11;;;;;;;5.85;2.97;;;;;;;20.40;40.93;100508.75;12194011;19;20011;-82
2022/08/10 01:04:13;;;;;;;4.10;2.97;;;;;;;20.44;40.78;100500.63;12212084;19;20050;-80
2022/08/10 01:08:57;;;;;;;4.28;2.88;;;;;;;20.43;41.22;100504.53;12190589;19;20006;-81
2022/08/10 01:13:08;;;;;;;5.82;2.83;;;;;;;20.40;41.40;100502.31;12210327;19;20006;-80
2022/08/10 01:17:14;;;;;;;7.40;2.78;;;;;;;20.36;41.09;100496.50;12183635;19;20011;-79
2022/08/10 01:21:57;;;;;;;5.03;3.47;;;;;;;20.33;41.42;100496.28;12209367;19;20056;-80
2022/08/10 01:26:23;;;;;;;5.28;2.85;;;;;;;20.27;41.16;100489.91;12185048;19;20033;-80
2022/08/10 01:30:34;;;;;;;4.13;2.85;;;;;;;20.22;41.70;100490.78;12212637;19;20787;-81
2022/08/10 01:34:48;;;;;;;5.80;2.72;;;;;;;20.15;42.00;100492.28;12213409;19;20014;-81
2022/08/10 01:38:51;;;;;;;6.78;2.97;;;;;;;20.12;42.03;100485.31;12190279;19;20012;-81
2022/08/10 01:42:56;;;;;;;5.00;3.00;;;;;;;20.07;42.51;100487.34;12206522;19;20409;-81
2022/08/10 01:51:36;;;;;;;5.18;3.00;;;;;;;19.94;42.46;100480.50;12214284;19;20013;-81
2022/08/10 01:55:39;;;;;;;4.80;2.97;;;;;;;19.87;42.72;100492.03;12212549;19;20059;-81
2022/08/10 01:59:43;;;;;;;4.60;3.25;;;;;;;19.94;42.17;100491.69;12190286;19;20086;-80
2022/08/10 02:04:07;;;;;;;5.38;3.05;;;;;;;19.97;42.22;100486.31;12216307;19;20575;-82
2022/08/10 02:08:13;;;;;;;4.50;2.88;;;;;;;19.93;42.31;100490.84;12200615;19;20078;-80
2022/08/10 02:12:19;;;;;;;9.55;2.90;;;;;;;19.87;42.85;100499.56;12221177;19;20006;-81
2022/08/10 02:16:24;;;;;;;4.85;3.05;;;;;;;19.82;43.04;100491.25;12222584;19;20006;-80
2022/08/10 02:20:32;;;;;;;5.00;2.63;;;;;;;19.78;42.81;100497.44;12198866;19;20074;-81
2022/08/10 02:24:36;;;;;;;6.00;3.00;;;;;;;19.73;43.14;100502.22;12219255;19;20800;-81
2022/08/10 02:28:40;;;;;;;6.40;2.72;;;;;;;19.73;43.29;100507.81;12222289;19;20667;-81
2022/08/10 02:32:42;;;;;;;4.80;2.90;;;;;;;19.66;43.73;100508.19;12193640;19;20074;-82
2022/08/10 02:36:55;;;;;;;6.60;3.05;;;;;;;19.59;43.22;100514.06;12217983;19;20007;-79
2022/08/10 02:41:06;;;;;;;4.63;2.67;;;;;;;19.54;43.64;100516.91;12209732;19;20002;-80
2022/08/10 02:45:37;;;;;;;4.18;2.60;;;;;;;19.46;43.67;100520.31;12217586;19;20046;-82
2022/08/10 02:49:47;;;;;;;6.45;3.20;;;;;;;19.40;44.00;100517.88;12217607;19;20003;-81
2022/08/10 02:53:54;;;;;;;8.30;3.17;;;;;;;19.42;44.09;100516.44;12195027;19;20122;-81
2022/08/10 02:58:06;;;;;;;3.97;3.03;;;;;;;19.38;44.57;100523.75;12215958;19;20015;-81
2022/08/10 03:02:31;;;;;;;6.07;2.95;;;;;;;19.30;44.68;100519.63;12192628;19;20017;-81
2022/08/10 03:06:40;;;;;;;4.55;2.80;;;;;;;19.21;44.86;100528.88;12218178;19;20010;-80
2022/08/10 03:10:45;;;;;;;5.28;2.90;;;;;;;19.15;45.13;100525.28;12217935;19;20006;-81
2022/08/10 03:14:48;;;;;;;3.65;2.78;;;;;;;19.12;45.07;100526.69;12196817;19;20010;-81
2022/08/10 03:18:51;;;;;;;5.90;2.72;;;;;;;19.12;45.01;100521.13;12218133;19;20002;-81
2022/08/10 03:22:54;;;;;;;5.13;2.88;;;;;;;19.07;44.90;100526.75;12216223;19;20673;-80
2022/08/10 03:26:57;;;;;;;4.13;2.75;;;;;;;19.04;45.20;100524.53;12193175;19;20012;-81
2022/08/10 03:31:00;;;;;;;4.60;3.17;;;;;;;19.03;45.18;100531.22;12213150;19;20025;-80
2022/08/10 03:35:05;;;;;;;4.70;2.85;;;;;;;19.03;44.89;100528.44;12196076;19;20082;-82
2022/08/10 03:39:06;;;;;;;6.40;3.03;;;;;;;19.01;45.23;100521.50;12218184;19;20490;-80
2022/08/10 03:43:12;;;;;;;6.35;2.92;;;;;;;18.98;45.58;100522.91;12216098;19;20074;-80
2022/08/10 03:47:15;;;;;;;3.67;3.00;;;;;;;18.99;45.53;100521.78;12194105;19;20094;-80
2022/08/10 03:51:25;;;;;;;4.90;3.08;;;;;;;18.99;45.31;100520.94;12217833;19;20488;-81
2022/08/10 03:55:27;;;;;;;4.82;3.05;;;;;;;18.93;45.54;100522.94;12259464;19;20013;-81
2022/08/10 03:59:49;;;;;;;5.03;3.50;;;;;;;18.92;45.74;100524.06;12211004;19;20011;-81
2022/08/10 04:03:51;;;;;;;4.65;3.28;;;;;;;18.95;45.75;100520.69;12220072;19;20033;-81
2022/08/10 04:08:13;;;;;;;7.90;3.28;;;;;;;18.93;45.29;100527.69;12197789;19;20085;-82
2022/08/10 04:12:14;;;;;;;6.25;2.83;;;;;;;18.94;45.29;100532.13;12214157;19;20117;-82
2022/08/10 04:16:16;;;;;;;9.02;2.88;;;;;;;18.90;45.58;100529.91;12216426;19;20007;-81
2022/08/10 04:20:30;;;;;;;8.73;3.17;;;;;;;18.88;45.61;100531.31;12195794;19;20095;-82
2022/08/10 04:24:38;;;;;;;6.03;2.92;;;;;;;18.87;45.54;100532.47;12214721;19;20007;-82
2022/08/10 04:28:40;;;;;;;5.30;3.42;;;;;;;18.86;45.84;100528.84;12215350;19;20074;-81
2022/08/10 04:32:45;;;;;;;5.00;3.05;;;;;;;18.87;46.13;100529.66;12189094;19;20006;-81
2022/08/10 04:36:51;;;;;;;3.97;2.83;;;;;;;18.85;46.34;100526.31;12213353;19;20031;-80
2022/08/10 04:40:52;;;;;;;7.88;3.38;;;;;;;18.83;46.39;100536.97;12215452;19;20023;-80
2022/08/10 04:44:54;;;;;;;4.53;2.95;;;;;;;18.82;46.70;100533.31;12191575;19;20081;-80
2022/08/10 04:48:56;;;;;;;7.53;3.50;;;;;;;18.82;46.55;100529.69;12216859;19;20105;-83
2022/08/10 04:53:02;;;;;;;5.88;3.35;;;;;;;18.83;46.84;100535.00;12192298;19;20006;-82
2022/08/10 04:57:04;;;;;;;5.43;3.33;;;;;;;18.89;46.66;100538.59;12211973;19;20031;-82
2022/08/10 05:01:06;;;;;;;5.95;3.33;;;;;;;18.91;47.00;100536.34;12211510;19;20078;-82
2022/08/10 05:05:08;;;;;;;4.43;2.92;;;;;;;18.92;46.58;100539.97;12189796;19;20034;-82
2022/08/10 05:09:09;;;;;;;4.07;2.90;;;;;;;18.94;46.78;100540.50;12211943;19;20006;-80
2022/08/10 05:13:11;;;;;;;6.25;3.28;;;;;;;18.92;46.70;100543.59;12209923;19;20030;-81
2022/08/10 05:17:13;;;;;;;4.80;3.15;;;;;;;18.96;46.80;100552.25;12190214;19;20082;-81
2022/08/10 05:21:14;;;;;;;4.85;2.95;;;;;;;18.95;46.94;100554.19;12214343;19;20772;-81
2022/08/10 05:25:36;;;;;;;5.00;3.40;;;;;;;18.99;47.00;100560.03;12214289;19;20042;-81
2022/08/10 05:29:38;;;;;;;4.97;3.15;;;;;;;19.09;47.01;100554.38;12190322;19;20015;-81
2022/08/10 05:33:40;;;;;;;11.75;3.28;;;;;;;19.11;46.55;100566.13;12210476;19;20078;-80
2022/08/10 05:37:43;;;;;;;5.10;3.00;;;;;;;19.19;46.93;100564.69;12207130;19;20066;-82
2022/08/10 05:42:05;;;;;;;8.40;2.95;;;;;;;19.24;47.03;100562.66;12186128;19;20019;-81
2022/08/10 05:46:07;;;;;;;6.30;3.10;;;;;;;19.28;47.07;100560.97;12205969;19;20015;-81
2022/08/10 05:50:26;;;;;;;9.50;3.30;;;;;;;19.36;46.99;100562.31;12184272;19;20033;-80
2022/08/10 05:54:27;;;;;;;5.25;2.83;;;;;;;19.45;46.78;100568.94;12206811;19;20003;-80
2022/08/10 05:58:29;;;;;;;8.55;2.80;;;;;;;19.57;46.75;100557.41;12207102;19;20019;-78
2022/08/10 06:02:35;;;;;;;7.15;3.30;;;;;;;19.71;46.14;100560.41;12185376;19;20455;-79
2022/08/10 06:06:38;;;;;;;8.07;3.38;;;;;;;19.79;45.89;100560.59;12207908;19;20069;-81
2022/08/10 06:10:40;;;;;;;6.55;3.33;;;;;;;19.87;45.78;100563.88;12203051;19;20010;-82
2022/08/10 06:15:02;;;;;;;7.32;3.10;;;;;;;20.02;45.94;100567.41;12175805;19;20123;-81
2022/08/10 06:19:06;;;;;;;6.00;2.92;;;;;;;20.12;45.61;100572.03;12188683;19;20078;-81
2022/08/10 06:23:10;;;;;;;5.13;3.47;;;;;;;20.25;45.47;100574.13;12183363;19;20014;-81
2022/08/10 06:27:12;;;;;;;4.43;3.35;;;;;;;20.45;45.04;100575.88;12204899;19;20011;-83
2022/08/10 06:31:18;;;;;;;5.95;3.30;;;;;;;20.61;45.12;100573.78;12206607;19;20011;-82
2022/08/10 06:35:21;;;;;;;5.82;3.25;;;;;;;20.75;44.70;100570.25;12188328;19;20020;-81
2022/08/10 06:39:22;;;;;;;4.97;3.20;;;;;;;20.88;44.41;100567.56;12211449;19;20059;-82
2022/08/10 06:43:46;;;;;;;6.55;2.95;;;;;;;21.06;43.95;100574.31;12206519;19;20381;-81
2022/08/10 06:47:54;;;;;;;4.07;3.22;;;;;;;21.31;43.20;100575.91;12185794;19;20035;-82
2022/08/10 06:52:00;;;;;;;5.20;3.17;;;;;;;21.59;42.76;100592.91;12217317;19;20082;-80
2022/08/10 06:56:06;;;;;;;7.68;3.00;;;;;;;21.78;42.60;100585.31;12208870;19;20074;-81
2022/08/10 07:00:10;;;;;;;4.88;3.03;;;;;;;22.03;42.13;100581.22;12221068;19;20027;-80
2022/08/10 07:04:34;;;;;;;6.70;3.00;;;;;;;22.31;41.78;100586.94;12217941;19;20034;-80
2022/08/10 07:08:37;;;;;;;4.55;2.83;;;;;;;22.50;41.58;100579.25;12199063;19;20023;-81
2022/08/10 07:12:39;;;;;;;5.22;2.90;;;;;;;22.80;40.74;100587.38;12218442;19;20010;-82
2022/08/10 07:16:43;;;;;;;;;;;;;;;23.03;39.98;100586.34;12218277;19;20006;-81
2022/08/10 07:20:46;;;;;;;6.32;3.00;;;;;;;23.28;40.12;100582.09;12193919;19;20313;-82
2022/08/10 07:24:49;;;;;;;7.13;3.13;;;;;;;23.53;39.43;100577.88;12218228;19;20002;-85
2022/08/10 07:29:39;;;;;;;5.43;3.00;;;;;;;23.88;38.85;100583.78;12218804;19;20355;-86
2022/08/10 07:34:40;;;;;;;8.48;2.97;;;;;;;24.18;38.30;100589.75;12155108;19;2004386;-89
2022/08/10 07:39:18;;;;;;;4.85;2.80;;;;;;;24.47;37.66;100584.47;12229435;19;20013;-86
2022/08/10 07:44:47;;;;;;;7.35;2.70;;;;;;;24.86;37.51;100582.81;12223582;19;20446;-87
2022/08/10 07:49:43;;;;;;;6.50;2.60;;;;;;;25.17;36.80;100596.03;12123722;19;2004259;-87
2022/08/10 07:53:51;;;;;;;4.68;2.95;;;;;;;25.26;35.97;100591.22;12193548;19;20019;-85
2022/08/10 07:57:58;;;;;;;5.38;3.17;;;;;;;25.46;35.82;100587.75;12223615;19;20010;-84
2022/08/10 08:02:27;;;;;;;5.20;2.60;;;;;;;25.75;35.24;100593.88;12221757;19;20007;-84
2022/08/10 08:06:46;;;;;;;10.60;2.90;;;;;;;26.07;35.32;100601.03;12097753;19;2004230;-83
2022/08/10 08:11:25;;;;;;;4.38;2.55;;;;;;;26.40;34.96;100608.91;12223490;19;20135;-84
2022/08/10 08:15:28;;;;;;;4.15;2.42;;;;;;;26.58;34.24;100604.88;12200385;19;20043;-84
2022/08/10 08:20:00;;;;;;;5.18;3.03;;;;;;;26.76;33.50;100611.31;12215699;19;20019;-87
2022/08/10 08:25:08;;;;;;;4.22;2.70;;;;;;;27.04;33.19;100606.84;12189842;19;20104;-86
2022/08/10 08:35:12;;;;;;;3.97;2.42;;;;;;;27.63;32.89;100597.44;12212772;19;20017;-86
2022/08/10 08:39:15;;;;;;;4.78;2.67;;;;;;;27.63;31.82;100590.94;12215535;19;20006;-85
2022/08/10 08:44:09;;;;;;;4.40;2.50;;;;;;;27.71;31.94;100592.88;12214095;19;20029;-85
2022/08/10 08:48:29;;;;;;;3.70;2.30;;;;;;;27.94;31.92;100588.53;12211240;19;20475;-86
2022/08/10 08:58:27;;;;;;;7.55;2.67;;;;;;;28.23;31.47;100589.56;12099597;19;2004545;-85
2022/08/10 09:03:00;;;;;;;12.05;2.83;;;;;;;28.53;30.93;100580.94;12172720;19;20119;-84
2022/08/10 09:07:38;;;;;;;8.68;3.00;;;;;;;28.83;30.58;100573.84;12195875;19;20014;-84
2022/08/10 09:12:25;;;;;;;6.13;2.50;;;;;;;28.89;30.65;100577.28;12197821;19;20081;-85
2022/08/10 09:16:48;;;;;;;8.27;2.03;;;;;;;29.02;30.07;100570.41;12197465;19;20018;-86
2022/08/10 09:22:06;;;;;;;4.60;2.47;;;;;;;29.22;29.36;100562.94;12178164;19;20010;-84
2022/08/10 09:26:44;;;;;;;7.15;2.25;;;;;;;29.41;29.50;100570.81;12196384;19;20074;-84
2022/08/10 09:31:09;;;;;;;4.47;2.38;;;;;;;29.23;28.85;100560.94;12197377;19;19999;-85
2022/08/10 09:35:29;;;;;;;3.42;1.90;;;;;;;29.42;28.48;100558.28;12178339;19;20482;-86
2022/08/10 09:40:16;;;;;;;2.90;1.92;;;;;;;29.71;28.06;100567.66;12198948;19;20082;-83
2022/08/10 09:44:50;;;;;;;6.68;2.20;;;;;;;30.12;27.59;100549.34;12176172;19;20465;-83
2022/08/10 09:49:20;;;;;;;4.05;2.15;;;;;;;30.34;27.01;100547.94;12198739;19;20120;-82
2022/08/10 09:54:47;;;;;;;3.58;2.17;;;;;;;30.59;26.72;100547.75;12177332;19;20510;-84
2022/08/10 09:59:06;;;;;;;8.43;2.17;;;;;;;30.59;25.82;100539.22;12197744;19;20019;-82
2022/08/10 10:03:44;;;;;;;7.60;2.60;;;;;;;30.82;26.28;100537.41;12175826;19;20018;-83
2022/08/10 10:07:59;;;;;;;5.03;2.60;;;;;;;30.92;25.71;100523.78;12201545;19;20447;-85
2022/08/10 10:12:24;;;;;;;6.85;2.38;;;;;;;31.00;25.87;100528.47;12175058;19;20389;-82
2022/08/10 10:16:44;;;;;;;5.68;2.70;;;;;;;31.17;25.46;100522.31;12196797;19;20011;-82
2022/08/10 10:21:33;;;;;;;3.10;2.00;;;;;;;31.07;24.79;100528.63;12174837;19;20007;-82
2022/08/10 10:26:23;;;;;;;3.28;2.05;;;;;;;31.01;24.92;100521.56;12204891;19;20002;-84
2022/08/10 10:30:30;;;;;;;5.75;2.28;;;;;;;31.36;24.72;100497.97;12181853;19;20077;-84
2022/08/10 10:34:35;;;;;;;7.45;2.40;;;;;;;31.50;24.02;100503.94;12204975;19;20006;-83
2022/08/10 10:38:40;;;;;;;8.23;2.22;;;;;;;31.59;23.13;100498.88;12186366;19;20036;-83
2022/08/10 10:43:03;;;;;;;4.70;2.20;;;;;;;31.60;24.00;100496.84;12204738;19;20010;-83
2022/08/10 10:47:28;;;;;;;5.65;1.95;;;;;;;31.91;23.64;100490.94;12185340;19;20006;-84
2022/08/10 10:51:42;;;;;;;4.55;1.92;;;;;;;32.49;23.06;100487.13;12207445;19;20064;-83
2022/08/10 10:56:03;;;;;;;5.25;2.30;;;;;;;32.71;23.03;100488.28;12206360;19;20020;-83
2022/08/10 11:00:20;;;;;;;6.03;2.25;;;;;;;32.84;21.74;100480.28;12185926;19;20030;-83
2022/08/10 11:04:26;;;;;;;4.70;2.35;;;;;;;32.74;21.38;100469.56;12208956;19;20011;-85
2022/08/10 11:08:33;;;;;;;6.72;2.05;;;;;;;32.23;21.47;100453.66;12186227;19;20480;-84
2022/08/10 11:12:48;;;;;;;7.75;2.40;;;;;;;32.40;21.96;100473.09;12210978;19;20014;-84
2022/08/10 11:17:16;;;;;;;5.60;2.35;;;;;;;32.63;21.38;100461.69;12209565;19;20010;-84
2022/08/10 11:21:53;;;;;;;3.08;2.03;;;;;;;32.64;21.63;100462.50;12199140;19;20010;-84
2022/08/10 11:26:00;;;;;;;3.40;2.50;;;;;;;32.55;21.44;100456.25;12252303;19;20010;-84
2022/08/10 11:30:08;;;;;;;4.43;2.30;;;;;;;32.53;20.74;100459.47;12187429;19;20010;-84
2022/08/10 11:34:49;;;;;;;20.17;4.03;;;;;;;32.47;20.90;100474.44;12218127;19;20380;-83
2022/08/10 11:39:24;;;;;;;4.07;2.05;;;;;;;32.70;21.15;100457.28;12198758;19;20002;-84
2022/08/10 11:43:28;;;;;;;4.95;2.30;;;;;;;33.09;21.09;100441.53;12219022;19;20409;-83
2022/08/10 11:47:38;;;;;;;5.22;2.20;;;;;;;33.62;20.37;100452.00;12195997;19;20015;-85
2022/08/10 11:51:48;;;;;;;9.20;2.30;;;;;;;34.09;19.60;100446.75;12218353;19;20353;-84
2022/08/10 11:55:55;;;;;;;13.57;3.20;;;;;;;34.54;19.37;100441.84;12219242;19;20074;-83
2022/08/10 11:59:57;;;;;;;4.05;2.55;;;;;;;34.64;19.08;100436.19;12196474;19;20063;-83
2022/08/10 12:04:06;;;;;;;4.75;2.75;;;;;;;34.81;19.18;100434.69;12217554;19;20013;-85
2022/08/10 12:08:17;;;;;;;6.80;2.45;;;;;;;35.20;18.68;100441.84;12198172;19;20082;-84
2022/08/10 12:12:49;;;;;;;2.85;2.45;;;;;;;34.64;18.97;100432.53;12216495;19;20006;-84
2022/08/10 12:17:02;;;;;;;4.72;2.40;;;;;;;35.38;18.29;100429.22;12217559;19;20011;-83
2022/08/10 12:21:12;;;;;;;3.45;2.55;;;;;;;36.14;18.04;100418.75;12194711;19;20022;-83
2022/08/10 12:25:49;;;;;;;4.22;2.63;;;;;;;36.28;17.93;100407.25;12215580;19;20017;-85
2022/08/10 12:30:12;;;;;;;5.53;2.60;;;;;;;36.70;17.13;100394.09;12193502;19;20011;-85
2022/08/10 12:34:32;;;;;;;5.45;2.58;;;;;;;37.29;17.18;100407.03;12211857;19;20588;-84
2022/08/10 12:39:13;;;;;;;5.63;2.72;;;;;;;37.51;16.93;100394.22;12192830;19;20077;-84
2022/08/10 12:43:19;;;;;;;2.60;2.40;;;;;;;38.32;16.17;100399.75;12211847;19;20409;-85
2022/08/10 12:48:03;;;;;;;5.47;2.53;;;;;;;38.41;15.63;100394.34;12186112;19;20034;-83
2022/08/10 12:52:26;;;;;;;5.47;2.72;;;;;;;38.70;15.65;100380.47;12209445;19;20086;-82
2022/08/10 12:56:35;;;;;;;7.03;3.00;;;;;;;39.02;15.10;100376.38;12187346;19;20014;-83
2022/08/10 13:00:42;;;;;;;4.80;2.25;;;;;;;39.45;15.05;100377.91;12210102;19;20033;-85
2022/08/10 13:05:09;;;;;;;7.68;2.72;;;;;;;39.90;14.42;100371.88;12205342;19;20007;-86
2022/08/10 13:09:20;;;;;;;5.40;2.70;;;;;;;40.15;14.15;100371.44;12213680;19;20023;-84
2022/08/10 13:13:26;;;;;;;3.83;2.88;;;;;;;40.41;13.95;100350.34;12211496;19;20509;-85
2022/08/10 13:17:31;;;;;;;9.32;3.15;;;;;;;40.24;14.36;100358.06;12187223;19;20006;-83
2022/08/10 13:21:42;;;;;;;6.53;2.80;;;;;;;40.18;14.13;100348.28;12210987;19;20007;-85
2022/08/10 13:25:47;;;;;;;5.85;2.40;;;;;;;40.08;14.13;100358.75;12210183;19;20034;-84
2022/08/10 13:29:57;;;;;;;4.78;2.70;;;;;;;40.36;13.80;100341.38;12186907;19;20019;-83
2022/08/10 13:34:13;;;;;;;3.80;2.50;;;;;;;39.97;14.13;100337.91;12206714;19;20010;-84
2022/08/10 13:38:36;;;;;;;3.25;2.38;;;;;;;40.47;13.45;100336.22;12187608;19;20011;-85
2022/08/10 13:42:39;;;;;;;4.22;2.15;;;;;;;41.18;13.40;100334.75;12208365;19;20537;-85
2022/08/10 13:46:50;;;;;;;4.43;2.28;;;;;;;41.27;13.13;100324.66;12211140;19;20018;-82
2022/08/10 13:50:57;;;;;;;5.13;2.40;;;;;;;42.03;12.67;100322.34;12185802;19;20106;-85
2022/08/10 13:55:00;;;;;;;2.60;2.33;;;;;;;41.85;12.84;100308.31;12208315;19;20006;-82
2022/08/10 13:59:04;;;;;;;4.18;2.20;;;;;;;40.76;13.22;100302.63;12216715;19;20020;-80
2022/08/10 14:03:14;;;;;;;4.13;2.53;;;;;;;41.04;12.90;100309.03;12194302;19;20059;-83
2022/08/10 14:07:17;;;;;;;4.25;2.67;;;;;;;41.57;12.92;100304.09;12219969;19;20010;-82
2022/08/10 14:11:21;;;;;;;9.45;2.90;;;;;;;41.45;12.62;100304.78;12197426;19;20085;-84
2022/08/10 14:21:15;;;;;;;3.33;2.75;;;;;;;39.15;13.97;100293.06;12154681;19;20132;-81
2022/08/10 14:31:21;;;;;;;4.05;2.83;;;;;;;36.58;15.76;100288.31;12211767;19;20010;-84
2022/08/10 14:36:41;;;;;;;3.97;2.55;;;;;;;35.22;17.04;100291.28;12213628;19;20006;-83
2022/08/10 14:45:52;;;;;;;5.55;2.78;;;;;;;33.62;17.91;100279.75;12215768;19;20038;-85
2022/08/10 14:49:55;;;;;;;4.30;2.50;;;;;;;33.22;18.24;100275.66;12215888;19;20014;-84
2022/08/10 14:54:03;;;;;;;5.38;2.42;;;;;;;33.27;18.27;100281.03;12193434;19;20048;-85
2022/08/10 14:58:06;;;;;;;9.93;2.67;;;;;;;33.11;18.84;100269.88;12217511;19;20014;-84
2022/08/10 15:02:24;;;;;;;3.78;2.40;;;;;;;33.12;18.69;100263.75;12194571;19;20006;-83
2022/08/10 15:06:52;;;;;;;4.40;2.63;;;;;;;33.13;18.55;100261.69;12217798;19;20671;-83
2022/08/10 15:10:57;;;;;;;4.30;2.30;;;;;;;33.25;18.63;100272.03;12216028;19;20007;-82
2022/08/10 15:15:01;;;;;;;6.80;2.90;;;;;;;32.86;18.89;100266.69;12195274;19;20015;-84
2022/08/10 15:19:04;;;;;;;8.18;2.67;;;;;;;32.63;19.08;100261.09;12267323;19;20620;-82
2022/08/10 15:23:27;;;;;;;2.58;2.15;;;;;;;32.52;18.95;100261.00;12217807;19;20006;-83
2022/08/10 15:27:36;;;;;;;4.20;2.25;;;;;;;32.47;18.98;100252.78;12224215;19;20009;-84
2022/08/10 15:40:49;;;;;;;3.65;2.47;;;;;;;32.19;18.99;100245.47;12223222;19;20031;-85
2022/08/10 15:44:53;;;;;;;5.55;2.30;;;;;;;32.21;18.97;100231.63;12201227;19;20486;-84
2022/08/10 15:48:59;;;;;;;3.60;2.63;;;;;;;32.30;18.68;100231.31;12222052;19;20013;-85
2022/08/10 15:53:08;;;;;;;4.05;2.28;;;;;;;32.45;18.88;100226.66;12219031;19;20019;-84
2022/08/10 15:57:22;;;;;;;4.28;2.50;;;;;;;32.50;18.90;100225.50;12199887;19;20022;-83
2022/08/10 16:01:43;;;;;;;3.70;2.30;;;;;;;32.33;18.76;100224.84;12219707;19;20077;-83
2022/08/10 16:06:06;;;;;;;4.50;2.10;;;;;;;32.26;18.81;100215.41;12193820;19;20034;-83
2022/08/10 16:10:12;;;;;;;3.70;2.20;;;;;;;32.05;19.24;100218.78;12217667;19;20010;-83
2022/08/10 16:14:34;;;;;;;2.83;2.28;;;;;;;31.87;18.95;100215.66;12193264;19;20027;-83
2022/08/10 16:18:40;;;;;;;4.93;2.10;;;;;;;31.76;19.34;100213.44;12217004;19;20013;-83
2022/08/10 16:22:42;;;;;;;5.00;2.60;;;;;;;32.17;18.85;100219.34;12214680;19;20014;-83
2022/08/10 16:26:49;;;;;;;3.67;2.30;;;;;;;32.44;18.57;100200.19;12194397;19;20042;-83
2022/08/10 16:30:52;;;;;;;4.03;2.20;;;;;;;32.19;18.96;100205.53;12214130;19;20527;-83
2022/08/10 16:34:56;;;;;;;5.13;2.28;;;;;;;31.86;18.82;100202.59;12215465;19;20066;-83
2022/08/10 16:38:59;;;;;;;3.92;2.20;;;;;;;31.57;19.50;100202.19;12187820;19;20010;-84
2022/08/10 16:43:02;;;;;;;6.95;3.10;;;;;;;31.19;19.75;100208.84;12212842;19;20070;-80
2022/08/10 16:47:07;;;;;;;4.47;2.30;;;;;;;31.13;19.58;100211.16;12207998;19;20602;-83
2022/08/10 16:51:10;;;;;;;8.60;2.47;;;;;;;31.02;19.47;100195.91;12194266;19;20023;-84
2022/08/10 16:55:20;;;;;;;4.18;2.28;;;;;;;30.87;19.73;100195.66;12210227;19;20015;-83
2022/08/10 16:59:42;;;;;;;4.30;2.22;;;;;;;30.78;19.85;100199.94;12191023;19;20038;-83
2022/08/10 17:03:48;;;;;;;4.05;2.47;;;;;;;30.65;20.36;100196.44;12210849;19;20011;-84
2022/08/10 17:08:13;;;;;;;4.50;2.30;;;;;;;30.58;20.14;100191.44;12213966;19;20082;-83
2022/08/10 17:12:23;;;;;;;5.43;2.50;;;;;;;30.55;20.85;100197.88;12189870;19;20034;-83
2022/08/10 17:16:40;;;;;;;4.55;2.53;;;;;;;30.47;20.77;100190.41;12211675;19;20006;-83
2022/08/10 17:20:44;;;;;;;6.63;2.42;;;;;;;30.36;20.87;100201.53;12190106;19;20018;-82
2022/08/10 17:24:51;;;;;;;3.50;2.47;;;;;;;30.37;20.92;100191.84;12211159;19;20082;-82
2022/08/10 17:28:57;;;;;;;7.97;2.65;;;;;;;30.34;20.79;100189.75;12211791;19;20066;-83
2022/08/10 17:33:07;;;;;;;6.03;2.17;;;;;;;30.30;21.02;100182.31;12187556;19;20006;-84
2022/08/10 17:37:16;;;;;;;3.97;2.75;;;;;;;30.22;21.28;100187.03;12208167;19;20111;-82
2022/08/10 17:41:24;;;;;;;5.80;2.58;;;;;;;30.10;21.44;100184.28;12181215;19;20436;-83
2022/08/10 17:45:31;;;;;;;6.13;2.20;;;;;;;30.00;21.64;100187.75;12206048;19;20093;-82
2022/08/10 17:49:53;;;;;;;4.38;2.40;;;;;;;29.91;21.97;100185.13;12207695;19;20066;-83
2022/08/10 17:53:57;;;;;;;4.38;2.45;;;;;;;29.86;22.18;100188.25;12182213;19;20003;-83
2022/08/10 17:58:02;;;;;;;6.25;2.85;;;;;;;29.74;22.08;100192.03;12202999;19;20010;-82
2022/08/10 18:02:07;;;;;;;7.85;2.25;;;;;;;29.61;22.15;100194.13;12203983;19;20036;-83
2022/08/10 18:06:14;;;;;;;4.30;2.65;;;;;;;29.55;22.41;100187.09;12184391;19;20046;-82
2022/08/10 18:10:19;;;;;;;7.65;2.55;;;;;;;29.42;22.76;100199.75;12203886;19;20011;-83
2022/08/10 18:14:23;;;;;;;4.45;2.53;;;;;;;29.23;23.02;100197.66;12178967;19;20046;-83
2022/08/10 18:18:26;;;;;;;4.28;2.65;;;;;;;29.01;23.52;100199.91;12204102;19;20082;-82
2022/08/10 18:22:29;;;;;;;8.15;2.42;;;;;;;28.76;23.39;100204.09;12202966;19;20011;-82
2022/08/10 18:26:38;;;;;;;4.90;2.50;;;;;;;28.50;23.77;100205.41;12186610;19;20075;-82
2022/08/10 18:30:52;;;;;;;5.53;2.60;;;;;;;28.29;24.52;100207.56;12204849;19;20086;-84
2022/08/10 18:34:58;;;;;;;2.85;2.53;;;;;;;27.99;24.58;100209.91;12196359;19;20015;-82
2022/08/10 18:39:02;;;;;;;3.90;2.30;;;;;;;27.68;24.90;100202.88;12170319;19;20015;-82
2022/08/10 18:43:09;;;;;;;5.05;2.38;;;;;;;27.36;25.35;100208.31;12194696;19;20017;-82
2022/08/10 18:47:39;;;;;;;5.70;2.33;;;;;;;27.05;25.87;100206.03;12193704;19;20030;-82
2022/08/10 18:52:14;;;;;;;4.50;2.35;;;;;;;26.72;26.70;100201.25;12216907;19;20014;-82
2022/08/10 18:56:42;;;;;;;5.25;1.98;;;;;;;26.37;27.05;100203.56;12195571;19;20016;-83
2022/08/10 19:01:07;;;;;;;4.15;2.20;;;;;;;26.02;28.12;100215.16;12217192;19;20066;-82
2022/08/10 19:05:12;;;;;;;6.97;2.47;;;;;;;25.75;27.88;100210.81;12220657;19;20460;-82
2022/08/10 19:09:55;;;;;;;4.75;2.55;;;;;;;25.42;28.72;100208.69;12204724;19;20022;-82
2022/08/10 19:14:18;;;;;;;5.63;2.65;;;;;;;25.15;29.68;100210.00;12225356;19;20043;-81
2022/08/10 19:18:45;;;;;;;;;;;;;;;24.92;29.49;100220.66;12247963;19;20087;-83
2022/08/10 19:22:58;;;;;;;5.18;2.55;;;;;;;24.72;30.46;100219.41;12217545;19;19915;-84
2022/08/10 19:27:21;;;;;;;5.10;2.65;;;;;;;24.55;30.79;100222.25;12194657;19;20011;-83
2022/08/10 19:31:23;;;;;;;7.35;2.55;;;;;;;24.38;30.72;100225.88;12217215;19;20077;-85
2022/08/10 19:35:47;;;;;;;4.45;2.63;;;;;;;24.23;31.09;100229.19;12195711;19;20020;-85
2022/08/10 19:40:11;;;;;;;5.20;2.33;;;;;;;24.07;31.35;100232.50;12215913;19;20035;-83
2022/08/10 19:44:25;;;;;;;3.45;2.38;;;;;;;23.95;31.21;100235.16;12210653;19;20352;-84
2022/08/10 19:49:12;;;;;;;4.93;2.30;;;;;;;23.87;31.72;100241.59;12222134;19;20010;-83
2022/08/10 19:53:53;;;;;;;4.63;2.75;;;;;;;23.79;31.48;100237.59;12200343;19;20086;-83
2022/08/10 19:58:18;;;;;;;7.20;2.63;;;;;;;23.73;31.40;100238.91;12212991;19;20070;-85
2022/08/10 20:02:35;;;;;;;4.32;2.42;;;;;;;23.67;31.25;100243.00;12190556;19;20528;-86
2022/08/10 20:06:43;;;;;;;5.68;2.40;;;;;;;23.62;31.27;100243.19;12214425;19;20007;-84
2022/08/10 20:10:57;;;;;;;3.22;2.03;;;;;;;23.56;31.82;100247.28;12213184;19;20019;-85